Latest Coastal Weather Observations for McCluer Island

IDD60701

Issued at 6:01 am CST Friday 27 May 2016 (issued every 10 minutes, with the page automatically refreshed every 10 minutes)

About coastal observations | Map of coastal stations | Coastal observations for NT | Marine services | Other Formats
Station Details ID: 014274 Name: MCCLUER ISLAND Lat: -11.05 Lon: 132.98 Height: 1.4 m
Data from the previous 72 hours. | See also: Recent months at McCluer Island
Date/Time
CST
Temp

°C
Wind Pressure Rain
since 9am
mm
Weather Cloud Vis
km
Sea
Height
m
Swell
Dir
 
Speed
knots
Gust
knots
hPa Trend Height
m
Period
s
Dir
27/06:00am 26.9 ESE 2 3 1012.9 - 0.0 - - - - - - -
27/05:30am 27.9 ENE 3 4 1012.8 - 0.0 - - - - - - -
27/05:00am 28.4 NE 6 8 1012.5 - 0.0 - - - - - - -
27/04:30am 28.4 NNE 7 8 1012.2 - 0.0 - - - - - - -
27/04:00am 28.1 N 6 7 1011.9 - 0.0 - - - - - - -
27/03:30am 28.1 N 5 6 1012.0 - 0.0 - - - - - - -
27/03:00am 28.3 NNE 4 6 1012.1 - 0.0 - - - - - - -
27/02:30am 28.5 NNE 6 7 1012.4 - 0.0 - - - - - - -
27/02:00am 28.7 NE 6 8 1012.6 - 0.0 - - - - - - -
27/01:30am 28.5 NE 6 7 1012.7 - 0.0 - - - - - - -
27/01:00am 28.8 NNE 6 8 1012.7 - 0.0 - - - - - - -
27/12:30am 28.8 NNE 7 8 1012.8 - 0.0 - - - - - - -
27/12:00am 28.9 NE 8 9 1012.7 - 0.0 - - - - - - -
 
Date/Time
CST
Temp

°C
Wind Pressure Rain
since 9am
mm
Weather Cloud Vis
km
Sea
Height
m
Swell
Dir
 
Speed
knots
Gust
knots
hPa Trend Height
m
Period
s
Dir
26/11:30pm 28.9 NE 8 9 1012.8 - 0.0 - - - - - - -
26/11:00pm 29.0 NE 8 10 1012.8 - 0.0 - - - - - - -
26/10:30pm 29.2 NE 8 9 1012.8 - 0.0 - - - - - - -
26/10:00pm 29.2 NE 9 11 1012.7 - 0.0 - - - - - - -
26/09:30pm 28.9 NE 8 11 1012.7 - 0.0 - - - - - - -
26/09:00pm 29.0 NE 9 10 1012.7 - 0.0 - - - - - - -
26/08:30pm 29.1 NE 8 9 1012.5 - 0.0 - - - - - - -
26/08:00pm 29.2 NE 8 10 1012.1 - 0.0 - - - - - - -
26/07:30pm 29.2 NE 8 9 1011.8 - 0.0 - - - - - - -
26/07:00pm 28.9 NE 7 9 1011.4 - 0.0 - - - - - - -
26/06:30pm 29.1 NE 8 9 1011.1 - 0.0 - - - - - - -
26/06:00pm 29.3 NE 8 10 1011.0 - 0.0 - - - - - - -
26/05:30pm 29.3 NE 9 10 1011.0 - 0.0 - - - - - - -
26/05:00pm 29.4 NE 8 9 1010.9 - 0.0 - - - - - - -
26/04:30pm 29.8 NE 8 9 1011.0 - 0.0 - - - - - - -
26/04:00pm 29.6 ENE 8 10 1010.9 - 0.0 - - - - - - -
26/03:30pm 29.6 E 8 10 1011.0 - 0.0 - - - - - - -
26/03:00pm 30.3 E 9 10 1011.1 - 0.0 - - - - - - -
26/02:30pm 30.0 E 8 10 1011.3 - 0.0 - - - - - - -
26/02:00pm 30.3 E 8 10 1011.7 - 0.0 - - - - - - -
26/01:30pm 30.1 E 8 10 1012.2 - 0.0 - - - - - - -
26/01:00pm 30.6 ESE 4 7 1012.7 - 0.0 - - - - - - -
26/12:30pm 31.0 E 6 7 1013.1 - 0.0 - - - - - - -
26/12:00pm 31.2 E 6 8 1013.4 - 0.0 - - - - - - -
26/11:30am 31.2 ESE 6 10 1013.6 - 0.0 - - - - - - -
26/11:00am 31.6 SE 7 10 1013.8 - 0.0 - - - - - - -
26/10:30am 30.8 E 7 8 1014.1 - 0.0 - - - - - - -
26/10:00am 31.0 E 4 6 1014.2 - 0.0 - - - - - - -
26/09:30am 30.3 ESE 5 6 1014.2 - 0.0 - - - - - - -
26/09:00am 29.8 E 4 6 1014.1 - 0.0 - - - - - - -
26/08:30am 29.4 ESE 5 6 1013.8 - 0.0 - - - - - - -
26/08:00am 28.7 E 4 5 1013.5 - 0.0 - - - - - - -
26/07:30am 27.5 E 5 7 1013.2 - 0.0 - - - - - - -
26/07:00am 27.6 ESE 6 9 1012.9 - 0.0 - - - - - - -
26/06:30am 26.3 SE 6 7 1012.7 - 0.0 - - - - - - -
26/06:00am 26.5 ESE 5 7 1012.5 - 0.0 - - - - - - -
26/05:30am 27.4 E 6 9 1012.1 - 0.0 - - - - - - -
26/05:00am 25.8 ESE 6 7 1011.8 - 0.0 - - - - - - -
26/04:30am 25.9 ESE 4 5 1011.7 - 0.0 - - - - - - -
26/04:00am 26.2 CALM 0 0 1011.6 - 0.0 - - - - - - -
26/03:30am 26.7 CALM 0 0 1011.6 - 0.0 - - - - - - -
26/03:00am 26.7 CALM 0 0 1011.6 - 0.0 - - - - - - -
26/02:30am 26.8 CALM 0 0 1011.9 - 0.0 - - - - - - -
26/02:00am 28.1 ENE 2 5 1012.1 - 0.0 - - - - - - -
26/01:30am 28.4 ENE 5 7 1012.3 - 0.0 - - - - - - -
26/01:00am 28.5 ENE 6 7 1012.5 - 0.0 - - - - - - -
26/12:30am 28.9 NE 5 7 1012.5 - 0.0 - - - - - - -
26/12:00am 28.6 NE 6 7 1012.5 - 0.0 - - - - - - -
 
Date/Time
CST
Temp

°C
Wind Pressure Rain
since 9am
mm
Weather Cloud Vis
km
Sea
Height
m
Swell
Dir
 
Speed
knots
Gust
knots
hPa Trend Height
m
Period
s
Dir
25/11:30pm 28.8 NE 6 8 1012.5 - 0.0 - - - - - - -
25/11:00pm 28.8 ENE 6 7 1012.5 - 0.0 - - - - - - -
25/10:30pm 28.9 NE 7 8 1012.5 - 0.0 - - - - - - -
25/10:00pm 29.1 NE 8 11 1012.5 - 0.0 - - - - - - -
25/09:30pm 28.7 NE 9 10 1012.4 - 0.0 - - - - - - -
25/09:00pm 29.0 NE 8 10 1012.1 - 0.0 - - - - - - -
25/08:30pm 28.8 NE 9 10 1011.9 - 0.0 - - - - - - -
25/08:00pm 29.1 NE 10 12 1011.7 - 0.0 - - - - - - -
25/07:30pm 29.0 NE 10 11 1011.2 - 0.0 - - - - - - -
25/07:00pm 29.0 ENE 10 11 1010.9 - 0.0 - - - - - - -
25/06:30pm 28.8 ENE 11 12 1010.7 - 0.0 - - - - - - -
25/06:00pm 29.1 ENE 11 13 1010.3 - 0.0 - - - - - - -
25/05:30pm 29.1 ENE 10 12 1010.2 - 0.0 - - - - - - -
25/05:00pm 29.4 E 11 13 1010.0 - 0.0 - - - - - - -
25/04:30pm 29.2 E 11 13 1009.8 - 0.0 - - - - - - -
25/04:00pm 29.8 E 11 13 1009.9 - 0.0 - - - - - - -
25/03:30pm 29.8 E 11 13 1010.1 - 0.0 - - - - - - -
25/03:00pm 29.9 E 10 12 1010.1 - 0.0 - - - - - - -
25/02:30pm 30.1 E 10 12 1010.2 - 0.0 - - - - - - -
25/02:00pm 29.9 ESE 11 13 1010.5 - 0.0 - - - - - - -
25/01:30pm 30.0 ESE 11 14 1011.2 - 0.0 - - - - - - -
25/01:00pm 30.4 ESE 11 14 1011.7 - 0.0 - - - - - - -
25/12:30pm 30.4 ESE 12 14 1012.1 - 0.0 - - - - - - -
25/12:00pm 30.1 E 12 15 1012.5 - 0.0 - - - - - - -
25/11:30am 29.8 ESE 13 16 1012.8 - 0.0 - - - - - - -
25/11:00am 30.9 ESE 11 15 1013.0 - 0.0 - - - - - - -
25/10:30am 30.3 ESE 12 15 1013.1 - 0.0 - - - - - - -
25/10:00am 30.2 ESE 11 14 1013.1 - 0.0 - - - - - - -
25/09:30am 29.2 SE 9 13 1013.2 - 0.0 - - - - - - -
25/09:00am 29.2 S 7 10 1012.9 - 0.0 - - - - - - -
25/08:30am 30.0 ESE 6 9 1012.7 - 0.0 - - - - - - -
25/08:00am 28.7 SE 5 6 1012.5 - 0.0 - - - - - - -
25/07:30am 27.2 ESE 6 7 1012.2 - 0.0 - - - - - - -
25/07:00am 26.6 SE 6 7 1012.0 - 0.0 - - - - - - -
25/06:30am 26.1 SE 6 7 1011.7 - 0.0 - - - - - - -
25/06:00am 26.3 SE 6 6 1011.4 - 0.0 - - - - - - -
25/05:30am 26.5 S 4 5 1011.2 - 0.0 - - - - - - -
25/05:00am 26.8 SSE 4 5 1011.1 - 0.0 - - - - - - -
25/04:30am 26.6 ESE 3 5 1011.0 - 0.0 - - - - - - -
25/04:00am 26.5 CALM 0 0 1010.7 - 0.0 - - - - - - -
25/03:30am 27.3 CALM 0 0 1010.6 - 0.0 - - - - - - -
25/03:00am 27.9 NNE 4 5 1011.0 - 0.0 - - - - - - -
25/02:30am 28.3 NNE 6 7 1011.3 - 0.0 - - - - - - -
25/02:00am 28.4 NNE 5 6 1011.6 - 0.0 - - - - - - -
25/01:30am 28.8 NNE 6 8 1011.9 - 0.0 - - - - - - -
25/01:00am 28.7 NNE 6 7 1012.0 - 0.0 - - - - - - -
25/12:30am 29.0 NE 7 8 1012.3 - 0.0 - - - - - - -
25/12:00am 28.9 NNE 7 8 1012.5 - 0.0 - - - - - - -
 
Date/Time
CST
Temp

°C
Wind Pressure Rain
since 9am
mm
Weather Cloud Vis
km
Sea
Height
m
Swell
Dir
 
Speed
knots
Gust
knots
hPa Trend Height
m
Period
s
Dir
24/11:30pm 29.2 NNE 7 8 1012.6 - 0.0 - - - - - - -
24/11:00pm 29.3 NNE 8 9 1012.4 - 0.0 - - - - - - -
24/10:30pm 29.1 NNE 8 10 1012.5 - 0.0 - - - - - - -
24/10:00pm 29.0 NNE 9 10 1012.6 - 0.0 - - - - - - -
24/09:30pm 29.2 NE 8 10 1012.4 - 0.0 - - - - - - -
24/09:00pm 29.0 NE 8 9 1012.1 - 0.0 - - - - - - -
24/08:30pm 29.2 ENE 7 8 1011.8 - 0.0 - - - - - - -
24/08:00pm 28.9 NE 9 10 1011.4 - 0.0 - - - - - - -
24/07:30pm 29.0 ENE 8 10 1011.0 - 0.0 - - - - - - -
24/07:00pm 28.9 ENE 8 9 1010.8 - 0.0 - - - - - - -
24/06:30pm 29.1 ENE 8 10 1010.6 - 0.0 - - - - - - -
24/06:00pm 29.1 ENE 9 11 1010.2 - 0.0 - - - - - - -
24/05:30pm 29.2 ENE 9 11 1009.9 - 0.0 - - - - - - -
24/05:00pm 29.3 E 9 11 1009.7 - 0.0 - - - - - - -
24/04:30pm 29.5 E 9 11 1009.6 - 0.0 - - - - - - -
24/04:00pm 29.7 E 9 11 1009.6 - 0.0 - - - - - - -
24/03:30pm 29.7 E 9 11 1009.8 - 0.0 - - - - - - -
24/03:00pm 29.6 ESE 10 13 1010.2 - 0.0 - - - - - - -
24/02:30pm 30.0 ESE 10 13 1010.4 - 0.0 - - - - - - -
24/02:00pm 29.9 E 10 12 1010.7 - 0.0 - - - - - - -
24/01:30pm 30.3 E 10 13 1011.1 - 0.0 - - - - - - -
24/01:00pm 30.0 ESE 10 12 1011.7 - 0.0 - - - - - - -
24/12:30pm 30.1 E 12 14 1012.1 - 0.0 - - - - - - -
24/12:00pm 29.9 ESE 11 13 1012.7 - 0.0 - - - - - - -
24/11:30am 29.6 ESE 12 14 1013.0 - 0.0 - - - - - - -
24/11:00am 29.6 E 13 15 1013.5 - 0.0 - - - - - - -
24/10:30am 29.7 ESE 12 15 1013.7 - 0.0 - - - - - - -
24/10:00am 29.2 ESE 12 14 1013.6 - 0.0 - - - - - - -
24/09:30am 29.5 ESE 12 15 1013.5 - 0.0 - - - - - - -
24/09:00am 30.3 SE 10 14 1013.3 - 0.0 - - - - - - -
24/08:30am 29.1 SE 10 13 1013.2 - 0.0 - - - - - - -
24/08:00am 28.3 SE 8 11 1012.8 - 0.0 - - - - - - -
24/07:30am 27.5 SE 8 11 1012.4 - 0.0 - - - - - - -
24/07:00am 26.9 SE 7 8 1012.2 - 0.0 - - - - - - -
24/06:30am 27.0 SE 7 8 1011.8 - 0.0 - - - - - - -

Other Formats:

Comma delimited format used in spreadsheet applications
http://www.bom.gov.au/fwo/IDD60701/IDD60701.94135.axf

JavaScript Object Notation format (JSON) in row-major order
http://www.bom.gov.au/fwo/IDD60701/IDD60701.94135.json